sensor_id;sensor_type;location;lat;lon;timestamp;P1;durP1;ratioP1;P2;durP2;ratioP2
60502;SDS011;51448;51.660;5.824;2023-06-22T00:01:23;11.05;;;7.22;;
60502;SDS011;51448;51.660;5.824;2023-06-22T00:03:50;9.82;;;6.70;;
60502;SDS011;51448;51.660;5.824;2023-06-22T00:06:18;10.80;;;7.65;;
60502;SDS011;51448;51.660;5.824;2023-06-22T00:08:46;10.57;;;7.85;;
60502;SDS011;51448;51.660;5.824;2023-06-22T00:11:14;13.13;;;7.93;;
60502;SDS011;51448;51.660;5.824;2023-06-22T00:13:41;11.15;;;9.23;;
60502;SDS011;51448;51.660;5.824;2023-06-22T00:16:09;10.82;;;9.40;;
60502;SDS011;51448;51.660;5.824;2023-06-22T00:18:37;15.05;;;9.68;;
60502;SDS011;51448;51.660;5.824;2023-06-22T00:21:04;11.55;;;8.95;;
60502;SDS011;51448;51.660;5.824;2023-06-22T00:23:33;11.10;;;8.82;;
60502;SDS011;51448;51.660;5.824;2023-06-22T00:26:02;14.55;;;9.10;;
60502;SDS011;51448;51.660;5.824;2023-06-22T00:28:29;11.30;;;8.65;;
60502;SDS011;51448;51.660;5.824;2023-06-22T00:30:57;11.38;;;8.93;;
60502;SDS011;51448;51.660;5.824;2023-06-22T00:33:25;13.88;;;9.25;;
60502;SDS011;51448;51.660;5.824;2023-06-22T00:35:55;14.25;;;8.70;;
60502;SDS011;51448;51.660;5.824;2023-06-22T00:38:23;13.23;;;8.90;;
60502;SDS011;51448;51.660;5.824;2023-06-22T00:40:50;13.75;;;9.50;;
60502;SDS011;51448;51.660;5.824;2023-06-22T00:43:18;11.55;;;8.73;;
60502;SDS011;51448;51.660;5.824;2023-06-22T00:45:46;12.60;;;9.18;;
60502;SDS011;51448;51.660;5.824;2023-06-22T00:48:17;11.90;;;9.30;;
60502;SDS011;51448;51.660;5.824;2023-06-22T00:50:47;13.80;;;10.10;;
60502;SDS011;51448;51.660;5.824;2023-06-22T00:53:17;17.00;;;10.60;;
60502;SDS011;51448;51.660;5.824;2023-06-22T00:55:45;12.05;;;9.90;;
60502;SDS011;51448;51.660;5.824;2023-06-22T00:58:14;13.35;;;9.70;;
60502;SDS011;51448;51.660;5.824;2023-06-22T01:00:42;11.82;;;9.63;;
60502;SDS011;51448;51.660;5.824;2023-06-22T01:03:10;13.38;;;10.40;;
60502;SDS011;51448;51.660;5.824;2023-06-22T01:05:38;11.55;;;10.23;;
60502;SDS011;51448;51.660;5.824;2023-06-22T01:11:24;14.77;;;10.73;;
60502;SDS011;51448;51.660;5.824;2023-06-22T01:14:04;12.45;;;9.82;;
60502;SDS011;51448;51.660;5.824;2023-06-22T01:17:05;13.88;;;10.90;;
60502;SDS011;51448;51.660;5.824;2023-06-22T01:19:49;14.80;;;10.25;;
60502;SDS011;51448;51.660;5.824;2023-06-22T01:22:25;12.48;;;10.25;;
60502;SDS011;51448;51.660;5.824;2023-06-22T01:25:09;13.05;;;10.23;;
60502;SDS011;51448;51.660;5.824;2023-06-22T01:27:55;15.73;;;10.88;;
60502;SDS011;51448;51.660;5.824;2023-06-22T01:30:28;14.02;;;10.20;;
60502;SDS011;51448;51.660;5.824;2023-06-22T01:32:59;13.02;;;10.68;;
60502;SDS011;51448;51.660;5.824;2023-06-22T01:35:32;14.70;;;11.05;;
60502;SDS011;51448;51.660;5.824;2023-06-22T01:38:00;14.93;;;11.23;;
60502;SDS011;51448;51.660;5.824;2023-06-22T01:40:29;12.95;;;10.50;;
60502;SDS011;51448;51.660;5.824;2023-06-22T01:43:01;13.38;;;10.80;;
60502;SDS011;51448;51.660;5.824;2023-06-22T01:45:31;12.32;;;10.43;;
60502;SDS011;51448;51.660;5.824;2023-06-22T01:47:58;14.55;;;11.02;;
60502;SDS011;51448;51.660;5.824;2023-06-22T01:50:28;15.30;;;12.13;;
60502;SDS011;51448;51.660;5.824;2023-06-22T01:52:56;14.00;;;10.98;;
60502;SDS011;51448;51.660;5.824;2023-06-22T01:55:26;15.65;;;11.50;;
60502;SDS011;51448;51.660;5.824;2023-06-22T01:57:53;14.35;;;11.38;;
60502;SDS011;51448;51.660;5.824;2023-06-22T02:00:22;14.77;;;10.82;;
60502;SDS011;51448;51.660;5.824;2023-06-22T02:05:37;13.90;;;10.48;;
60502;SDS011;51448;51.660;5.824;2023-06-22T02:08:22;13.82;;;10.15;;
60502;SDS011;51448;51.660;5.824;2023-06-22T02:10:59;17.35;;;10.85;;
60502;SDS011;51448;51.660;5.824;2023-06-22T02:13:30;15.27;;;11.50;;
60502;SDS011;51448;51.660;5.824;2023-06-22T02:15:59;12.77;;;10.13;;
60502;SDS011;51448;51.660;5.824;2023-06-22T02:18:28;14.15;;;10.90;;
60502;SDS011;51448;51.660;5.824;2023-06-22T02:20:56;16.55;;;11.32;;
60502;SDS011;51448;51.660;5.824;2023-06-22T02:23:23;13.27;;;11.40;;
60502;SDS011;51448;51.660;5.824;2023-06-22T02:25:51;13.60;;;10.93;;
60502;SDS011;51448;51.660;5.824;2023-06-22T02:28:19;17.33;;;11.35;;
60502;SDS011;51448;51.660;5.824;2023-06-22T02:30:46;14.70;;;11.55;;
60502;SDS011;51448;51.660;5.824;2023-06-22T02:33:14;14.40;;;10.73;;
60502;SDS011;51448;51.660;5.824;2023-06-22T02:35:41;13.45;;;11.07;;
60502;SDS011;51448;51.660;5.824;2023-06-22T02:38:14;16.55;;;12.52;;
60502;SDS011;51448;51.660;5.824;2023-06-22T02:40:42;14.88;;;11.93;;
60502;SDS011;51448;51.660;5.824;2023-06-22T02:43:10;13.50;;;11.05;;
60502;SDS011;51448;51.660;5.824;2023-06-22T02:45:38;14.35;;;11.10;;
60502;SDS011;51448;51.660;5.824;2023-06-22T02:48:06;14.20;;;11.70;;
60502;SDS011;51448;51.660;5.824;2023-06-22T02:50:34;13.77;;;10.93;;
60502;SDS011;51448;51.660;5.824;2023-06-22T02:53:02;14.93;;;11.40;;
60502;SDS011;51448;51.660;5.824;2023-06-22T02:55:34;13.85;;;11.77;;
60502;SDS011;51448;51.660;5.824;2023-06-22T02:58:02;13.55;;;11.20;;
60502;SDS011;51448;51.660;5.824;2023-06-22T03:00:34;14.85;;;11.57;;
60502;SDS011;51448;51.660;5.824;2023-06-22T03:03:02;14.25;;;10.68;;
60502;SDS011;51448;51.660;5.824;2023-06-22T03:05:30;13.52;;;11.30;;
60502;SDS011;51448;51.660;5.824;2023-06-22T03:08:00;14.77;;;11.13;;
60502;SDS011;51448;51.660;5.824;2023-06-22T03:12:59;12.90;;;10.30;;
60502;SDS011;51448;51.660;5.824;2023-06-22T03:15:26;16.83;;;12.23;;
60502;SDS011;51448;51.660;5.824;2023-06-22T03:17:56;16.30;;;13.20;;
60502;SDS011;51448;51.660;5.824;2023-06-22T03:20:24;16.85;;;13.20;;
60502;SDS011;51448;51.660;5.824;2023-06-22T03:22:54;17.35;;;12.68;;
60502;SDS011;51448;51.660;5.824;2023-06-22T03:25:22;17.90;;;12.85;;
60502;SDS011;51448;51.660;5.824;2023-06-22T03:27:50;14.50;;;12.50;;
60502;SDS011;51448;51.660;5.824;2023-06-22T03:30:18;17.05;;;13.40;;
60502;SDS011;51448;51.660;5.824;2023-06-22T03:32:46;15.60;;;11.85;;
60502;SDS011;51448;51.660;5.824;2023-06-22T03:35:14;15.73;;;11.93;;
60502;SDS011;51448;51.660;5.824;2023-06-22T03:37:42;15.82;;;12.32;;
60502;SDS011;51448;51.660;5.824;2023-06-22T03:40:09;16.40;;;12.18;;
60502;SDS011;51448;51.660;5.824;2023-06-22T03:42:38;14.38;;;11.50;;
60502;SDS011;51448;51.660;5.824;2023-06-22T03:45:06;16.17;;;11.00;;
60502;SDS011;51448;51.660;5.824;2023-06-22T03:47:34;14.45;;;11.70;;
60502;SDS011;51448;51.660;5.824;2023-06-22T03:50:02;15.32;;;11.95;;
60502;SDS011;51448;51.660;5.824;2023-06-22T03:52:31;15.93;;;12.77;;
60502;SDS011;51448;51.660;5.824;2023-06-22T03:54:59;18.83;;;13.50;;
60502;SDS011;51448;51.660;5.824;2023-06-22T03:57:27;20.80;;;15.70;;
60502;SDS011;51448;51.660;5.824;2023-06-22T03:59:56;22.13;;;17.05;;
60502;SDS011;51448;51.660;5.824;2023-06-22T04:02:24;21.08;;;16.35;;
60502;SDS011;51448;51.660;5.824;2023-06-22T04:04:53;24.83;;;18.92;;
60502;SDS011;51448;51.660;5.824;2023-06-22T04:07:20;27.88;;;22.10;;
60502;SDS011;51448;51.660;5.824;2023-06-22T04:09:48;26.45;;;20.92;;
60502;SDS011;51448;51.660;5.824;2023-06-22T04:12:15;26.25;;;20.08;;
60502;SDS011;51448;51.660;5.824;2023-06-22T04:14:46;23.73;;;19.35;;
60502;SDS011;51448;51.660;5.824;2023-06-22T04:17:13;22.17;;;16.73;;
60502;SDS011;51448;51.660;5.824;2023-06-22T04:19:42;23.85;;;17.95;;
60502;SDS011;51448;51.660;5.824;2023-06-22T04:22:09;21.60;;;16.30;;
60502;SDS011;51448;51.660;5.824;2023-06-22T04:24:37;19.42;;;16.30;;
60502;SDS011;51448;51.660;5.824;2023-06-22T04:27:05;19.00;;;15.00;;
60502;SDS011;51448;51.660;5.824;2023-06-22T04:29:32;19.52;;;15.27;;
60502;SDS011;51448;51.660;5.824;2023-06-22T04:32:00;16.33;;;13.88;;
60502;SDS011;51448;51.660;5.824;2023-06-22T04:34:32;18.52;;;13.98;;
60502;SDS011;51448;51.660;5.824;2023-06-22T04:36:59;16.08;;;13.55;;
60502;SDS011;51448;51.660;5.824;2023-06-22T04:39:27;19.00;;;15.07;;
60502;SDS011;51448;51.660;5.824;2023-06-22T04:41:55;19.08;;;15.00;;
60502;SDS011;51448;51.660;5.824;2023-06-22T04:44:27;19.00;;;14.18;;
60502;SDS011;51448;51.660;5.824;2023-06-22T04:46:56;19.50;;;15.90;;
60502;SDS011;51448;51.660;5.824;2023-06-22T04:49:30;19.35;;;14.35;;
60502;SDS011;51448;51.660;5.824;2023-06-22T04:52:02;17.83;;;13.95;;
60502;SDS011;51448;51.660;5.824;2023-06-22T04:54:32;34.05;;;17.75;;
60502;SDS011;51448;51.660;5.824;2023-06-22T04:57:02;18.45;;;15.27;;
60502;SDS011;51448;51.660;5.824;2023-06-22T04:59:38;17.30;;;14.18;;
60502;SDS011;51448;51.660;5.824;2023-06-22T05:02:09;19.20;;;14.55;;
60502;SDS011;51448;51.660;5.824;2023-06-22T05:04:37;17.90;;;14.25;;
60502;SDS011;51448;51.660;5.824;2023-06-22T05:07:06;20.77;;;15.18;;
60502;SDS011;51448;51.660;5.824;2023-06-22T05:09:34;19.02;;;15.38;;
60502;SDS011;51448;51.660;5.824;2023-06-22T05:12:02;19.15;;;15.02;;
60502;SDS011;51448;51.660;5.824;2023-06-22T05:14:34;32.13;;;17.05;;
60502;SDS011;51448;51.660;5.824;2023-06-22T05:17:02;23.58;;;15.25;;
60502;SDS011;51448;51.660;5.824;2023-06-22T05:19:31;21.80;;;15.88;;
60502;SDS011;51448;51.660;5.824;2023-06-22T05:22:01;21.45;;;17.00;;
60502;SDS011;51448;51.660;5.824;2023-06-22T05:24:29;48.20;;;19.65;;
60502;SDS011;51448;51.660;5.824;2023-06-22T05:26:56;20.20;;;16.15;;
60502;SDS011;51448;51.660;5.824;2023-06-22T05:29:24;22.73;;;16.27;;
60502;SDS011;51448;51.660;5.824;2023-06-22T05:31:53;19.30;;;16.17;;
60502;SDS011;51448;51.660;5.824;2023-06-22T05:34:21;18.10;;;15.95;;
60502;SDS011;51448;51.660;5.824;2023-06-22T05:36:49;16.95;;;14.75;;
60502;SDS011;51448;51.660;5.824;2023-06-22T05:39:16;20.10;;;15.65;;
60502;SDS011;51448;51.660;5.824;2023-06-22T05:41:44;18.45;;;16.35;;
60502;SDS011;51448;51.660;5.824;2023-06-22T05:44:13;20.73;;;16.83;;
60502;SDS011;51448;51.660;5.824;2023-06-22T05:46:42;19.23;;;16.08;;
60502;SDS011;51448;51.660;5.824;2023-06-22T05:49:15;19.88;;;16.98;;
60502;SDS011;51448;51.660;5.824;2023-06-22T05:51:43;19.90;;;16.77;;
60502;SDS011;51448;51.660;5.824;2023-06-22T05:54:11;21.58;;;18.13;;
60502;SDS011;51448;51.660;5.824;2023-06-22T05:56:40;18.40;;;15.90;;
60502;SDS011;51448;51.660;5.824;2023-06-22T05:59:08;19.95;;;17.02;;
60502;SDS011;51448;51.660;5.824;2023-06-22T06:01:36;19.38;;;16.75;;
60502;SDS011;51448;51.660;5.824;2023-06-22T06:04:05;21.63;;;17.15;;
60502;SDS011;51448;51.660;5.824;2023-06-22T06:06:35;20.40;;;17.10;;
60502;SDS011;51448;51.660;5.824;2023-06-22T06:09:04;23.25;;;17.45;;
60502;SDS011;51448;51.660;5.824;2023-06-22T06:11:32;19.92;;;17.83;;
60502;SDS011;51448;51.660;5.824;2023-06-22T06:14:00;19.90;;;17.35;;
60502;SDS011;51448;51.660;5.824;2023-06-22T06:16:28;22.48;;;17.50;;
60502;SDS011;51448;51.660;5.824;2023-06-22T06:18:56;19.45;;;17.00;;
60502;SDS011;51448;51.660;5.824;2023-06-22T06:21:25;19.38;;;17.35;;
60502;SDS011;51448;51.660;5.824;2023-06-22T06:26:25;22.92;;;16.73;;
60502;SDS011;51448;51.660;5.824;2023-06-22T06:28:56;23.80;;;17.63;;
60502;SDS011;51448;51.660;5.824;2023-06-22T06:31:26;18.65;;;16.25;;
60502;SDS011;51448;51.660;5.824;2023-06-22T06:33:56;20.48;;;18.13;;
60502;SDS011;51448;51.660;5.824;2023-06-22T06:36:24;19.50;;;16.88;;
60502;SDS011;51448;51.660;5.824;2023-06-22T06:38:52;20.33;;;16.63;;
60502;SDS011;51448;51.660;5.824;2023-06-22T06:41:19;21.20;;;16.95;;
60502;SDS011;51448;51.660;5.824;2023-06-22T06:43:48;20.17;;;17.90;;
60502;SDS011;51448;51.660;5.824;2023-06-22T06:46:15;19.25;;;17.08;;
60502;SDS011;51448;51.660;5.824;2023-06-22T06:48:43;19.95;;;17.85;;
60502;SDS011;51448;51.660;5.824;2023-06-22T06:51:11;18.85;;;16.80;;
60502;SDS011;51448;51.660;5.824;2023-06-22T06:53:38;19.25;;;17.08;;
60502;SDS011;51448;51.660;5.824;2023-06-22T06:56:06;20.30;;;17.70;;
60502;SDS011;51448;51.660;5.824;2023-06-22T06:58:34;20.13;;;18.05;;
60502;SDS011;51448;51.660;5.824;2023-06-22T07:01:02;21.92;;;17.10;;
60502;SDS011;51448;51.660;5.824;2023-06-22T07:03:30;22.00;;;17.60;;
60502;SDS011;51448;51.660;5.824;2023-06-22T07:05:59;22.58;;;17.77;;
60502;SDS011;51448;51.660;5.824;2023-06-22T07:08:27;22.58;;;19.45;;
60502;SDS011;51448;51.660;5.824;2023-06-22T07:10:55;19.98;;;16.92;;
60502;SDS011;51448;51.660;5.824;2023-06-22T07:13:23;23.38;;;18.17;;
60502;SDS011;51448;51.660;5.824;2023-06-22T07:15:51;20.17;;;17.77;;
60502;SDS011;51448;51.660;5.824;2023-06-22T07:18:18;22.85;;;16.80;;
60502;SDS011;51448;51.660;5.824;2023-06-22T07:20:46;22.40;;;18.00;;
60502;SDS011;51448;51.660;5.824;2023-06-22T07:23:14;20.60;;;18.05;;
60502;SDS011;51448;51.660;5.824;2023-06-22T07:25:44;19.00;;;16.80;;
60502;SDS011;51448;51.660;5.824;2023-06-22T07:28:11;19.35;;;17.05;;
60502;SDS011;51448;51.660;5.824;2023-06-22T07:30:39;19.42;;;17.30;;
60502;SDS011;51448;51.660;5.824;2023-06-22T07:33:07;23.00;;;18.52;;
60502;SDS011;51448;51.660;5.824;2023-06-22T07:35:36;20.13;;;16.67;;
60502;SDS011;51448;51.660;5.824;2023-06-22T07:38:04;20.67;;;18.08;;
60502;SDS011;51448;51.660;5.824;2023-06-22T07:40:32;22.33;;;17.20;;
60502;SDS011;51448;51.660;5.824;2023-06-22T07:43:01;21.83;;;18.60;;
60502;SDS011;51448;51.660;5.824;2023-06-22T07:45:30;22.65;;;17.23;;
60502;SDS011;51448;51.660;5.824;2023-06-22T07:48:01;19.83;;;17.50;;
60502;SDS011;51448;51.660;5.824;2023-06-22T07:50:29;22.48;;;18.67;;
60502;SDS011;51448;51.660;5.824;2023-06-22T07:52:57;21.00;;;17.90;;
60502;SDS011;51448;51.660;5.824;2023-06-22T07:55:25;20.88;;;17.55;;
60502;SDS011;51448;51.660;5.824;2023-06-22T07:57:52;23.08;;;18.77;;
60502;SDS011;51448;51.660;5.824;2023-06-22T08:00:20;20.95;;;18.38;;
60502;SDS011;51448;51.660;5.824;2023-06-22T08:02:48;21.30;;;18.25;;
60502;SDS011;51448;51.660;5.824;2023-06-22T08:05:15;19.95;;;16.75;;
60502;SDS011;51448;51.660;5.824;2023-06-22T08:08:02;20.52;;;17.65;;
60502;SDS011;51448;51.660;5.824;2023-06-22T08:10:30;20.33;;;18.17;;
60502;SDS011;51448;51.660;5.824;2023-06-22T08:12:58;21.45;;;17.08;;
60502;SDS011;51448;51.660;5.824;2023-06-22T08:15:26;18.73;;;16.75;;
60502;SDS011;51448;51.660;5.824;2023-06-22T08:17:54;17.77;;;15.63;;
60502;SDS011;51448;51.660;5.824;2023-06-22T08:20:22;19.08;;;16.50;;
60502;SDS011;51448;51.660;5.824;2023-06-22T08:22:50;18.92;;;16.42;;
60502;SDS011;51448;51.660;5.824;2023-06-22T08:25:17;19.70;;;17.70;;
60502;SDS011;51448;51.660;5.824;2023-06-22T08:27:45;18.80;;;16.10;;
60502;SDS011;51448;51.660;5.824;2023-06-22T08:30:17;23.27;;;17.90;;
60502;SDS011;51448;51.660;5.824;2023-06-22T08:32:48;19.93;;;16.57;;
60502;SDS011;51448;51.660;5.824;2023-06-22T08:35:15;21.20;;;16.88;;
60502;SDS011;51448;51.660;5.824;2023-06-22T08:37:43;18.38;;;16.40;;
60502;SDS011;51448;51.660;5.824;2023-06-22T08:40:18;18.90;;;16.30;;
60502;SDS011;51448;51.660;5.824;2023-06-22T08:42:49;17.90;;;15.75;;
60502;SDS011;51448;51.660;5.824;2023-06-22T08:45:17;20.98;;;16.05;;
60502;SDS011;51448;51.660;5.824;2023-06-22T08:47:46;18.50;;;15.88;;
60502;SDS011;51448;51.660;5.824;2023-06-22T08:50:14;17.98;;;16.10;;
60502;SDS011;51448;51.660;5.824;2023-06-22T08:52:41;20.25;;;15.05;;
60502;SDS011;51448;51.660;5.824;2023-06-22T08:55:09;20.55;;;16.50;;
60502;SDS011;51448;51.660;5.824;2023-06-22T08:57:38;20.98;;;17.10;;
60502;SDS011;51448;51.660;5.824;2023-06-22T09:00:07;19.27;;;16.55;;
60502;SDS011;51448;51.660;5.824;2023-06-22T09:02:47;16.63;;;14.73;;
60502;SDS011;51448;51.660;5.824;2023-06-22T09:05:16;18.75;;;16.00;;
60502;SDS011;51448;51.660;5.824;2023-06-22T09:07:44;20.17;;;15.60;;
60502;SDS011;51448;51.660;5.824;2023-06-22T09:10:38;18.25;;;16.35;;
60502;SDS011;51448;51.660;5.824;2023-06-22T09:13:05;27.40;;;15.90;;
60502;SDS011;51448;51.660;5.824;2023-06-22T09:15:33;17.95;;;15.88;;
60502;SDS011;51448;51.660;5.824;2023-06-22T09:18:01;17.48;;;15.65;;
60502;SDS011;51448;51.660;5.824;2023-06-22T09:20:29;19.05;;;17.05;;
60502;SDS011;51448;51.660;5.824;2023-06-22T09:22:58;19.60;;;15.82;;
60502;SDS011;51448;51.660;5.824;2023-06-22T09:25:25;33.95;;;17.85;;
60502;SDS011;51448;51.660;5.824;2023-06-22T09:27:53;20.15;;;15.43;;
60502;SDS011;51448;51.660;5.824;2023-06-22T09:30:21;18.42;;;15.68;;
60502;SDS011;51448;51.660;5.824;2023-06-22T09:32:49;18.90;;;16.88;;
60502;SDS011;51448;51.660;5.824;2023-06-22T09:35:17;28.98;;;18.17;;
60502;SDS011;51448;51.660;5.824;2023-06-22T09:37:45;18.10;;;16.17;;
60502;SDS011;51448;51.660;5.824;2023-06-22T09:40:13;18.73;;;16.50;;
60502;SDS011;51448;51.660;5.824;2023-06-22T09:42:44;27.13;;;17.95;;
60502;SDS011;51448;51.660;5.824;2023-06-22T09:45:11;20.55;;;16.48;;
60502;SDS011;51448;51.660;5.824;2023-06-22T09:47:39;18.10;;;15.07;;
60502;SDS011;51448;51.660;5.824;2023-06-22T09:50:07;17.70;;;13.23;;
60502;SDS011;51448;51.660;5.824;2023-06-22T09:52:35;16.80;;;13.15;;
60502;SDS011;51448;51.660;5.824;2023-06-22T09:55:06;15.50;;;13.23;;
60502;SDS011;51448;51.660;5.824;2023-06-22T09:57:34;14.88;;;12.63;;
60502;SDS011;51448;51.660;5.824;2023-06-22T10:00:03;13.98;;;12.15;;
60502;SDS011;51448;51.660;5.824;2023-06-22T10:02:36;15.00;;;12.55;;
60502;SDS011;51448;51.660;5.824;2023-06-22T10:05:03;14.57;;;12.75;;
60502;SDS011;51448;51.660;5.824;2023-06-22T10:07:32;18.77;;;12.90;;
60502;SDS011;51448;51.660;5.824;2023-06-22T10:09:59;14.15;;;12.65;;
60502;SDS011;51448;51.660;5.824;2023-06-22T10:12:27;14.25;;;12.45;;
60502;SDS011;51448;51.660;5.824;2023-06-22T10:14:55;34.55;;;15.68;;
60502;SDS011;51448;51.660;5.824;2023-06-22T10:17:23;16.77;;;12.52;;
60502;SDS011;51448;51.660;5.824;2023-06-22T10:19:50;14.77;;;12.85;;
60502;SDS011;51448;51.660;5.824;2023-06-22T10:22:18;16.10;;;13.68;;
60502;SDS011;51448;51.660;5.824;2023-06-22T10:24:46;20.48;;;15.25;;
60502;SDS011;51448;51.660;5.824;2023-06-22T10:27:13;18.10;;;16.13;;
60502;SDS011;51448;51.660;5.824;2023-06-22T10:29:41;17.58;;;15.82;;
60502;SDS011;51448;51.660;5.824;2023-06-22T10:32:09;21.35;;;16.27;;
60502;SDS011;51448;51.660;5.824;2023-06-22T10:34:36;19.45;;;15.55;;
60502;SDS011;51448;51.660;5.824;2023-06-22T10:37:04;18.55;;;16.15;;
60502;SDS011;51448;51.660;5.824;2023-06-22T10:39:32;30.60;;;17.10;;
60502;SDS011;51448;51.660;5.824;2023-06-22T10:42:00;24.35;;;16.20;;
60502;SDS011;51448;51.660;5.824;2023-06-22T10:44:28;19.92;;;16.50;;
60502;SDS011;51448;51.660;5.824;2023-06-22T10:46:55;16.73;;;14.85;;
60502;SDS011;51448;51.660;5.824;2023-06-22T10:49:25;18.25;;;15.00;;
60502;SDS011;51448;51.660;5.824;2023-06-22T10:51:53;16.52;;;14.75;;
60502;SDS011;51448;51.660;5.824;2023-06-22T10:54:21;17.98;;;15.35;;
60502;SDS011;51448;51.660;5.824;2023-06-22T10:56:48;16.63;;;13.35;;
60502;SDS011;51448;51.660;5.824;2023-06-22T10:59:16;20.70;;;14.77;;
60502;SDS011;51448;51.660;5.824;2023-06-22T11:01:44;16.63;;;13.60;;
60502;SDS011;51448;51.660;5.824;2023-06-22T11:04:11;16.90;;;13.27;;
60502;SDS011;51448;51.660;5.824;2023-06-22T11:06:39;13.70;;;12.15;;
60502;SDS011;51448;51.660;5.824;2023-06-22T11:09:07;17.20;;;13.05;;
60502;SDS011;51448;51.660;5.824;2023-06-22T11:11:38;15.80;;;14.10;;
60502;SDS011;51448;51.660;5.824;2023-06-22T11:14:05;18.30;;;13.27;;
60502;SDS011;51448;51.660;5.824;2023-06-22T11:16:33;16.73;;;13.25;;
60502;SDS011;51448;51.660;5.824;2023-06-22T11:19:02;17.17;;;14.95;;
60502;SDS011;51448;51.660;5.824;2023-06-22T11:21:32;24.77;;;15.47;;
60502;SDS011;51448;51.660;5.824;2023-06-22T11:24:00;17.63;;;14.65;;
60502;SDS011;51448;51.660;5.824;2023-06-22T11:26:28;20.98;;;16.33;;
60502;SDS011;51448;51.660;5.824;2023-06-22T11:28:56;20.27;;;15.95;;
60502;SDS011;51448;51.660;5.824;2023-06-22T11:31:23;18.35;;;15.63;;
60502;SDS011;51448;51.660;5.824;2023-06-22T11:33:53;20.88;;;16.35;;
60502;SDS011;51448;51.660;5.824;2023-06-22T11:36:21;19.08;;;16.27;;
60502;SDS011;51448;51.660;5.824;2023-06-22T11:38:48;18.02;;;16.13;;
60502;SDS011;51448;51.660;5.824;2023-06-22T11:41:16;18.55;;;16.33;;
60502;SDS011;51448;51.660;5.824;2023-06-22T11:43:44;17.73;;;15.15;;
60502;SDS011;51448;51.660;5.824;2023-06-22T11:46:12;17.58;;;14.93;;
60502;SDS011;51448;51.660;5.824;2023-06-22T11:48:40;18.45;;;16.45;;
60502;SDS011;51448;51.660;5.824;2023-06-22T11:51:07;19.95;;;17.08;;
60502;SDS011;51448;51.660;5.824;2023-06-22T11:53:36;18.95;;;16.23;;
60502;SDS011;51448;51.660;5.824;2023-06-22T11:56:03;21.17;;;16.67;;
60502;SDS011;51448;51.660;5.824;2023-06-22T11:58:31;21.08;;;18.65;;
60502;SDS011;51448;51.660;5.824;2023-06-22T12:00:59;20.92;;;18.13;;
60502;SDS011;51448;51.660;5.824;2023-06-22T12:03:26;19.85;;;17.70;;
60502;SDS011;51448;51.660;5.824;2023-06-22T12:05:54;20.35;;;18.15;;
60502;SDS011;51448;51.660;5.824;2023-06-22T12:08:22;23.35;;;20.92;;
60502;SDS011;51448;51.660;5.824;2023-06-22T12:10:50;21.67;;;19.13;;
60502;SDS011;51448;51.660;5.824;2023-06-22T12:13:18;23.90;;;21.45;;
60502;SDS011;51448;51.660;5.824;2023-06-22T12:15:46;23.02;;;19.55;;
60502;SDS011;51448;51.660;5.824;2023-06-22T12:18:13;22.95;;;20.50;;
60502;SDS011;51448;51.660;5.824;2023-06-22T12:20:44;25.63;;;22.87;;
60502;SDS011;51448;51.660;5.824;2023-06-22T12:23:11;24.80;;;22.30;;
60502;SDS011;51448;51.660;5.824;2023-06-22T12:25:39;25.30;;;22.02;;
60502;SDS011;51448;51.660;5.824;2023-06-22T12:28:07;25.27;;;22.23;;
60502;SDS011;51448;51.660;5.824;2023-06-22T12:30:34;25.35;;;22.35;;
60502;SDS011;51448;51.660;5.824;2023-06-22T12:33:02;24.48;;;21.88;;
60502;SDS011;51448;51.660;5.824;2023-06-22T12:35:30;24.52;;;22.02;;
60502;SDS011;51448;51.660;5.824;2023-06-22T12:37:58;24.85;;;22.08;;
60502;SDS011;51448;51.660;5.824;2023-06-22T12:40:25;25.10;;;22.42;;
60502;SDS011;51448;51.660;5.824;2023-06-22T12:42:54;22.77;;;20.38;;
60502;SDS011;51448;51.660;5.824;2023-06-22T12:45:22;23.90;;;20.92;;
60502;SDS011;51448;51.660;5.824;2023-06-22T12:47:50;25.05;;;22.10;;
60502;SDS011;51448;51.660;5.824;2023-06-22T12:50:18;25.92;;;23.20;;
60502;SDS011;51448;51.660;5.824;2023-06-22T12:52:45;26.02;;;23.38;;
60502;SDS011;51448;51.660;5.824;2023-06-22T12:55:13;26.98;;;24.30;;
60502;SDS011;51448;51.660;5.824;2023-06-22T12:57:40;26.60;;;23.90;;
60502;SDS011;51448;51.660;5.824;2023-06-22T13:00:08;30.20;;;27.00;;
60502;SDS011;51448;51.660;5.824;2023-06-22T13:02:40;28.45;;;24.83;;
60502;SDS011;51448;51.660;5.824;2023-06-22T13:05:07;26.75;;;24.02;;
60502;SDS011;51448;51.660;5.824;2023-06-22T13:07:36;25.02;;;22.42;;
60502;SDS011;51448;51.660;5.824;2023-06-22T13:10:03;24.17;;;21.77;;
60502;SDS011;51448;51.660;5.824;2023-06-22T13:12:32;22.95;;;20.65;;
60502;SDS011;51448;51.660;5.824;2023-06-22T13:14:59;25.58;;;22.33;;
60502;SDS011;51448;51.660;5.824;2023-06-22T13:17:27;22.20;;;19.88;;
60502;SDS011;51448;51.660;5.824;2023-06-22T13:19:55;22.50;;;20.17;;
60502;SDS011;51448;51.660;5.824;2023-06-22T13:25:07;21.17;;;19.05;;
60502;SDS011;51448;51.660;5.824;2023-06-22T13:27:39;20.10;;;18.00;;
60502;SDS011;51448;51.660;5.824;2023-06-22T13:30:09;21.17;;;18.92;;
60502;SDS011;51448;51.660;5.824;2023-06-22T13:32:40;20.30;;;18.30;;
60502;SDS011;51448;51.660;5.824;2023-06-22T13:35:09;19.90;;;17.60;;
60502;SDS011;51448;51.660;5.824;2023-06-22T13:37:38;20.85;;;18.10;;
60502;SDS011;51448;51.660;5.824;2023-06-22T13:40:07;19.42;;;17.35;;
60502;SDS011;51448;51.660;5.824;2023-06-22T13:42:35;19.65;;;17.65;;
60502;SDS011;51448;51.660;5.824;2023-06-22T13:45:04;19.65;;;17.65;;
60502;SDS011;51448;51.660;5.824;2023-06-22T13:47:34;21.23;;;17.95;;
60502;SDS011;51448;51.660;5.824;2023-06-22T13:50:02;20.23;;;18.13;;
60502;SDS011;51448;51.660;5.824;2023-06-22T13:52:30;18.02;;;16.17;;
60502;SDS011;51448;51.660;5.824;2023-06-22T13:54:58;17.80;;;16.10;;
60502;SDS011;51448;51.660;5.824;2023-06-22T13:57:26;19.67;;;16.98;;
60502;SDS011;51448;51.660;5.824;2023-06-22T13:59:53;19.75;;;17.27;;
60502;SDS011;51448;51.660;5.824;2023-06-22T14:02:21;19.65;;;17.55;;
60502;SDS011;51448;51.660;5.824;2023-06-22T14:04:49;21.33;;;18.15;;
60502;SDS011;51448;51.660;5.824;2023-06-22T14:07:17;20.83;;;18.73;;
60502;SDS011;51448;51.660;5.824;2023-06-22T14:09:46;20.15;;;18.15;;
60502;SDS011;51448;51.660;5.824;2023-06-22T14:12:14;19.48;;;17.55;;
60502;SDS011;51448;51.660;5.824;2023-06-22T14:14:43;23.15;;;18.27;;
60502;SDS011;51448;51.660;5.824;2023-06-22T14:17:11;19.98;;;17.92;;
60502;SDS011;51448;51.660;5.824;2023-06-22T14:19:38;21.20;;;18.98;;
60502;SDS011;51448;51.660;5.824;2023-06-22T14:22:06;20.10;;;18.00;;
60502;SDS011;51448;51.660;5.824;2023-06-22T14:24:34;20.05;;;18.05;;
60502;SDS011;51448;51.660;5.824;2023-06-22T14:27:01;18.83;;;16.90;;
60502;SDS011;51448;51.660;5.824;2023-06-22T14:29:30;20.30;;;16.58;;
60502;SDS011;51448;51.660;5.824;2023-06-22T14:31:58;20.40;;;17.67;;
60502;SDS011;51448;51.660;5.824;2023-06-22T14:34:26;19.00;;;17.00;;
60502;SDS011;51448;51.660;5.824;2023-06-22T14:36:54;20.50;;;17.77;;
60502;SDS011;51448;51.660;5.824;2023-06-22T14:39:22;20.27;;;16.92;;
60502;SDS011;51448;51.660;5.824;2023-06-22T14:41:49;20.60;;;18.50;;
60502;SDS011;51448;51.660;5.824;2023-06-22T14:44:18;20.25;;;18.15;;
60502;SDS011;51448;51.660;5.824;2023-06-22T14:46:45;21.67;;;18.27;;